Time;durP1;ratioP1;P1;durP2;ratioP2;P2;SDS_P1;SDS_P2;PMS_P1;PMS_P2;Temp;Humidity;BMP_temperature;BMP_pressure;BME280_temperature;BME280_humidity;BME280_pressure;Samples;Min_cycle;Max_cycle;Signal;HPM_P1;HPM_P2
2022/08/02 00:01:52;;;;;;;1.75;1.50;;;;;;;;;;4999802;28;20414;-87
2022/08/02 00:04:17;;;;;;;2.72;1.58;;;;;;;;;;4984185;28;20037;-87
2022/08/02 00:06:43;;;;;;;1.98;1.67;;;;;;;;;;5006793;28;20029;-86
2022/08/02 00:09:08;;;;;;;1.85;1.50;;;;;;;;;;4984700;28;20026;-87
2022/08/02 00:11:34;;;;;;;2.03;1.58;;;;;;;;;;5003930;28;20022;-87
2022/08/02 00:13:59;;;;;;;2.47;1.40;;;;;;;;;;5003159;28;20097;-87
2022/08/02 00:16:25;;;;;;;2.67;1.75;;;;;;;;;;4990846;28;20386;-88
2022/08/02 00:18:50;;;;;;;2.33;1.90;;;;;;;;;;4988160;28;20445;-87
2022/08/02 00:21:16;;;;;;;1.70;1.50;;;;;;;;;;5005153;28;20482;-87
2022/08/02 00:23:41;;;;;;;2.40;1.88;;;;;;;;;;5006038;28;20034;-88
2022/08/02 00:26:07;;;;;;;2.60;1.88;;;;;;;;;;4990430;28;20030;-86
2022/08/02 00:28:32;;;;;;;1.60;1.48;;;;;;;;;;5007297;28;20057;-88
2022/08/02 00:30:58;;;;;;;2.55;1.65;;;;;;;;;;4980815;28;20375;-85
2022/08/02 00:33:25;;;;;;;3.78;1.80;;;;;;;;;;5004807;28;20034;-85
2022/08/02 00:35:50;;;;;;;2.97;1.75;;;;;;;;;;5007021;28;20029;-84
2022/08/02 00:38:16;;;;;;;2.50;1.55;;;;;;;;;;4999678;28;20042;-87
2022/08/02 00:40:47;;;;;;;1.85;1.50;;;;;;;;;;5007741;28;20065;-86
2022/08/02 00:43:12;;;;;;;1.90;1.50;;;;;;;;;;5009236;28;20104;-84
2022/08/02 00:45:39;;;;;;;2.10;1.67;;;;;;;;;;4983924;28;20030;-86
2022/08/02 00:48:06;;;;;;;4.07;1.60;;;;;;;;;;5006475;28;20068;-86
2022/08/02 00:50:33;;;;;;;2.78;1.58;;;;;;;;;;5002364;28;20041;-86
2022/08/02 00:52:58;;;;;;;2.88;1.60;;;;;;;;;;5000671;28;20478;-85
2022/08/02 00:55:25;;;;;;;2.60;1.50;;;;;;;;;;5005616;28;20076;-86
2022/08/02 00:57:50;;;;;;;3.80;1.70;;;;;;;;;;4984925;28;20072;-86
2022/08/02 01:00:16;;;;;;;3.10;1.70;;;;;;;;;;5005519;28;20429;-85
2022/08/02 01:02:42;;;;;;;2.95;1.70;;;;;;;;;;5006611;28;20030;-86
2022/08/02 01:05:07;;;;;;;3.17;1.85;;;;;;;;;;5007676;28;20133;-85
2022/08/02 01:07:33;;;;;;;2.03;1.60;;;;;;;;;;5000443;28;20394;-86
2022/08/02 01:10:02;;;;;;;2.38;1.58;;;;;;;;;;5000204;28;20025;-86
2022/08/02 01:12:27;;;;;;;3.10;1.70;;;;;;;;;;4999741;28;20026;-84
2022/08/02 01:14:57;;;;;;;2.75;1.45;;;;;;;;;;5001559;28;20026;-84
2022/08/02 01:17:56;;;;;;;1.75;1.60;;;;;;;;;;5008376;28;20401;-85
2022/08/02 01:20:52;;;;;;;4.40;2.13;;;;;;;;;;5006762;28;20096;-87
2022/08/02 01:23:36;;;;;;;1.85;1.60;;;;;;;;;;5002682;28;20482;-87
2022/08/02 01:26:36;;;;;;;2.63;1.70;;;;;;;;;;4998517;28;20101;-86
2022/08/02 01:29:24;;;;;;;3.08;1.80;;;;;;;;;;4974069;28;20034;-86
2022/08/02 01:32:04;;;;;;;2.22;1.73;;;;;;;;;;5002549;28;20109;-86
2022/08/02 01:34:39;;;;;;;2.22;1.98;;;;;;;;;;5000560;28;20032;-85
2022/08/02 01:37:18;;;;;;;2.70;2.10;;;;;;;;;;5001973;28;20041;-87
2022/08/02 01:39:45;;;;;;;1.67;1.50;;;;;;;;;;5002689;28;20030;-85
2022/08/02 01:42:11;;;;;;;2.58;1.70;;;;;;;;;;4999088;28;20125;-85
2022/08/02 01:44:40;;;;;;;2.45;1.90;;;;;;;;;;5000231;28;20503;-84
2022/08/02 01:47:09;;;;;;;2.85;2.00;;;;;;;;;;5003181;28;20073;-86
2022/08/02 01:49:36;;;;;;;;;;;;;;;;;;4988025;28;20099;-84
2022/08/02 01:52:22;;;;;;;2.00;1.60;;;;;;;;;;5006780;28;20008;-85
2022/08/02 01:55:07;;;;;;;3.30;2.17;;;;;;;;;;4995350;28;20034;-86
2022/08/02 01:57:47;;;;;;;2.67;2.03;;;;;;;;;;4985992;28;20034;-88
2022/08/02 02:00:16;;;;;;;1.92;1.70;;;;;;;;;;5004745;28;20034;-87
2022/08/02 02:02:46;;;;;;;2.88;2.08;;;;;;;;;;5000817;28;20061;-85
2022/08/02 02:05:18;;;;;;;4.18;2.30;;;;;;;;;;5001171;28;20026;-87
2022/08/02 02:07:48;;;;;;;6.65;2.17;;;;;;;;;;5005541;28;20508;-87
2022/08/02 02:10:14;;;;;;;;;;;;;;;;;;5000182;28;20113;-84
2022/08/02 02:12:43;;;;;;;3.55;1.70;;;;;;;;;;4998257;28;19913;-85
2022/08/02 02:15:10;;;;;;;3.40;2.05;;;;;;;;;;5006577;28;20037;-84
2022/08/02 02:17:40;;;;;;;3.55;2.35;;;;;;;;;;5000125;28;20033;-85
2022/08/02 02:20:07;;;;;;;2.83;2.10;;;;;;;;;;4997171;28;20030;-84
2022/08/02 02:22:33;;;;;;;2.60;1.92;;;;;;;;;;5002657;28;20112;-84
2022/08/02 02:24:58;;;;;;;2.67;2.10;;;;;;;;;;4988001;28;20061;-85
2022/08/02 02:27:24;;;;;;;2.55;2.25;;;;;;;;;;5002282;28;20492;-85
2022/08/02 02:29:52;;;;;;;4.75;2.40;;;;;;;;;;5004168;28;20041;-86
2022/08/02 02:32:20;;;;;;;2.22;2.00;;;;;;;;;;5001301;28;20089;-83
2022/08/02 02:34:47;;;;;;;3.40;2.30;;;;;;;;;;5003793;28;20034;-86
2022/08/02 02:37:17;;;;;;;2.80;2.13;;;;;;;;;;5003586;28;20615;-86
2022/08/02 02:39:44;;;;;;;3.40;2.20;;;;;;;;;;4994151;28;20036;-86
2022/08/02 02:42:14;;;;;;;2.63;2.00;;;;;;;;;;5001868;28;20109;-86
2022/08/02 02:44:39;;;;;;;4.30;2.40;;;;;;;;;;5003446;28;20026;-86
2022/08/02 02:47:06;;;;;;;4.25;2.40;;;;;;;;;;5003805;28;20037;-86
2022/08/02 02:49:34;;;;;;;4.47;1.85;;;;;;;;;;5002076;28;20049;-85
2022/08/02 02:52:00;;;;;;;5.20;2.35;;;;;;;;;;5001367;28;20041;-85
2022/08/02 02:54:27;;;;;;;2.85;2.10;;;;;;;;;;5003280;28;20092;-87
2022/08/02 02:56:53;;;;;;;2.78;2.22;;;;;;;;;;5004606;28;20139;-86
2022/08/02 02:59:19;;;;;;;2.10;1.70;;;;;;;;;;5005450;28;20113;-85
2022/08/02 03:01:44;;;;;;;3.10;1.70;;;;;;;;;;5002472;28;20097;-87
2022/08/02 03:04:11;;;;;;;2.40;1.88;;;;;;;;;;5001723;28;20026;-85
2022/08/02 03:06:38;;;;;;;2.10;1.48;;;;;;;;;;5001445;28;20382;-84
2022/08/02 03:09:04;;;;;;;2.17;1.40;;;;;;;;;;5000299;28;20088;-86
2022/08/02 03:11:30;;;;;;;2.75;1.45;;;;;;;;;;5006584;28;20041;-87
2022/08/02 03:14:02;;;;;;;1.70;1.27;;;;;;;;;;4979174;28;20042;-84
2022/08/02 03:16:28;;;;;;;2.13;1.58;;;;;;;;;;4996740;28;20062;-86
2022/08/02 03:18:55;;;;;;;1.40;1.27;;;;;;;;;;5004215;28;20474;-86
2022/08/02 03:21:21;;;;;;;2.72;1.25;;;;;;;;;;4999574;28;20390;-85
2022/08/02 03:23:47;;;;;;;1.63;1.30;;;;;;;;;;4998853;28;20034;-86
2022/08/02 03:26:14;;;;;;;2.92;1.40;;;;;;;;;;4984983;28;20033;-85
2022/08/02 03:28:39;;;;;;;3.00;1.85;;;;;;;;;;5005800;28;20084;-85
2022/08/02 03:31:05;;;;;;;2.33;1.60;;;;;;;;;;4983248;28;20431;-86
2022/08/02 03:33:32;;;;;;;3.60;1.90;;;;;;;;;;5002027;28;20028;-86
2022/08/02 03:36:01;;;;;;;2.75;1.77;;;;;;;;;;4995347;28;20027;-85
2022/08/02 03:38:27;;;;;;;3.05;2.00;;;;;;;;;;4999982;28;20027;-84
2022/08/02 03:40:54;;;;;;;2.88;2.08;;;;;;;;;;5001216;28;20053;-85
2022/08/02 03:43:20;;;;;;;2.85;2.17;;;;;;;;;;4981973;28;20029;-85
2022/08/02 03:45:48;;;;;;;2.85;1.90;;;;;;;;;;5002145;28;20045;-86
2022/08/02 03:48:15;;;;;;;3.28;1.95;;;;;;;;;;4995536;28;20025;-85
2022/08/02 03:50:42;;;;;;;4.10;2.10;;;;;;;;;;4999751;28;20037;-86
2022/08/02 03:53:08;;;;;;;2.33;1.85;;;;;;;;;;4996536;28;20022;-85
2022/08/02 03:55:38;;;;;;;7.35;2.45;;;;;;;;;;4984041;28;20123;-86
2022/08/02 03:58:04;;;;;;;3.75;2.65;;;;;;;;;;5002015;28;20026;-84
2022/08/02 04:00:30;;;;;;;3.63;2.30;;;;;;;;;;4998526;28;20624;-86
2022/08/02 04:02:56;;;;;;;4.13;2.53;;;;;;;;;;5004092;28;20052;-86
2022/08/02 04:05:22;;;;;;;4.28;2.53;;;;;;;;;;5004798;28;20022;-85
2022/08/02 04:07:48;;;;;;;3.08;2.60;;;;;;;;;;5001834;28;20058;-86
2022/08/02 04:10:13;;;;;;;4.82;2.63;;;;;;;;;;5002747;28;20057;-85
2022/08/02 04:12:39;;;;;;;3.88;2.60;;;;;;;;;;5001488;28;20136;-85
2022/08/02 04:15:06;;;;;;;4.05;3.00;;;;;;;;;;5003964;28;20021;-85
2022/08/02 04:17:33;;;;;;;3.75;2.45;;;;;;;;;;5001837;28;20395;-86
2022/08/02 04:20:09;;;;;;;4.28;2.60;;;;;;;;;;5002031;28;20027;-85
2022/08/02 04:22:41;;;;;;;4.63;2.55;;;;;;;;;;4999063;28;20936;-86
2022/08/02 04:25:09;;;;;;;2.90;2.58;;;;;;;;;;4999727;28;20022;-86
2022/08/02 04:27:36;;;;;;;4.18;2.58;;;;;;;;;;5001067;28;20022;-86
2022/08/02 04:30:03;;;;;;;3.25;2.70;;;;;;;;;;4983084;28;20118;-85
2022/08/02 04:32:30;;;;;;;2.83;2.47;;;;;;;;;;5001785;28;20026;-86
2022/08/02 04:34:56;;;;;;;3.80;2.85;;;;;;;;;;5000472;28;20026;-85
2022/08/02 04:37:21;;;;;;;4.35;2.50;;;;;;;;;;4998297;28;20045;-84
2022/08/02 04:39:47;;;;;;;4.65;3.10;;;;;;;;;;5001728;28;20113;-84
2022/08/02 04:42:24;;;;;;;8.35;3.10;;;;;;;;;;4997943;28;20046;-84
2022/08/02 04:44:50;;;;;;;4.28;2.60;;;;;;;;;;5004112;28;20019;-85
2022/08/02 04:47:16;;;;;;;2.75;2.30;;;;;;;;;;5003498;28;20026;-85
2022/08/02 04:49:41;;;;;;;4.55;3.25;;;;;;;;;;4999013;28;20109;-84
2022/08/02 04:52:07;;;;;;;4.05;2.70;;;;;;;;;;4999360;28;20029;-85
2022/08/02 04:54:33;;;;;;;3.33;2.40;;;;;;;;;;5002551;28;20389;-85
2022/08/02 04:56:58;;;;;;;6.40;3.10;;;;;;;;;;5000633;28;20038;-85
2022/08/02 04:59:24;;;;;;;3.05;2.13;;;;;;;;;;5000945;28;20030;-84
2022/08/02 05:01:49;;;;;;;2.05;1.60;;;;;;;;;;4983723;28;20042;-85
2022/08/02 05:04:15;;;;;;;2.63;2.17;;;;;;;;;;5005796;28;20022;-86
2022/08/02 05:06:40;;;;;;;3.00;2.20;;;;;;;;;;4984016;28;20022;-83
2022/08/02 05:09:06;;;;;;;3.90;2.70;;;;;;;;;;5004280;28;20026;-83
2022/08/02 05:11:31;;;;;;;3.53;2.33;;;;;;;;;;5000086;28;20024;-84
2022/08/02 05:13:56;;;;;;;5.22;2.40;;;;;;;;;;5003480;28;20030;-84
2022/08/02 05:16:22;;;;;;;3.38;2.40;;;;;;;;;;5002126;28;20037;-83
2022/08/02 05:18:49;;;;;;;3.40;2.08;;;;;;;;;;5000724;28;20104;-84
2022/08/02 05:21:15;;;;;;;3.67;2.42;;;;;;;;;;4998992;28;20031;-83
2022/08/02 05:23:41;;;;;;;3.08;2.40;;;;;;;;;;4986496;28;20385;-84
2022/08/02 05:26:06;;;;;;;4.30;2.28;;;;;;;;;;5000595;28;20030;-85
2022/08/02 05:28:32;;;;;;;7.15;2.40;;;;;;;;;;5002683;28;20026;-84
2022/08/02 05:30:57;;;;;;;3.15;2.40;;;;;;;;;;5005328;28;20030;-83
2022/08/02 05:33:22;;;;;;;4.88;2.40;;;;;;;;;;4983531;28;20030;-82
2022/08/02 05:35:48;;;;;;;5.03;3.22;;;;;;;;;;4994973;28;20085;-84
2022/08/02 05:38:13;;;;;;;5.88;2.35;;;;;;;;;;4996197;28;20038;-83
2022/08/02 05:40:39;;;;;;;4.25;2.30;;;;;;;;;;4997510;28;20038;-86
2022/08/02 05:43:14;;;;;;;3.08;2.30;;;;;;;;;;4994476;28;20026;-84
2022/08/02 05:45:40;;;;;;;7.38;2.80;;;;;;;;;;4997901;28;20145;-82
2022/08/02 05:48:06;;;;;;;9.40;3.42;;;;;;;;;;4998139;28;20044;-83
2022/08/02 05:50:33;;;;;;;8.00;4.25;;;;;;;;;;4999085;28;20026;-84
2022/08/02 05:53:05;;;;;;;7.78;3.22;;;;;;;;;;5002242;28;20363;-83
2022/08/02 05:55:39;;;;;;;6.60;2.97;;;;;;;;;;4997848;28;20108;-82
2022/08/02 05:58:22;;;;;;;2.88;2.10;;;;;;;;;;4996813;28;20030;-84
2022/08/02 06:00:49;;;;;;;4.35;2.25;;;;;;;;;;4995562;28;20494;-84
2022/08/02 06:03:25;;;;;;;7.00;2.30;;;;;;;;;;4998775;28;20022;-84
2022/08/02 06:06:04;;;;;;;2.85;1.73;;;;;;;;;;4999785;28;20056;-83
2022/08/02 06:08:38;;;;;;;4.18;1.67;;;;;;;;;;4997252;28;20463;-83
2022/08/02 06:11:05;;;;;;;2.83;2.10;;;;;;;;;;4995941;28;20026;-84
2022/08/02 06:13:32;;;;;;;2.47;1.20;;;;;;;;;;4998999;28;20109;-83
2022/08/02 06:15:58;;;;;;;2.65;1.67;;;;;;;;;;4997358;28;20478;-85
2022/08/02 06:18:27;;;;;;;2.53;1.30;;;;;;;;;;5000161;28;20037;-83
2022/08/02 06:21:00;;;;;;;2.33;1.30;;;;;;;;;;5000273;28;20034;-85
2022/08/02 06:23:26;;;;;;;2.08;1.58;;;;;;;;;;4998948;28;20076;-84
2022/08/02 06:25:53;;;;;;;2.05;1.83;;;;;;;;;;5002192;28;20049;-85
2022/08/02 06:28:19;;;;;;;2.85;1.58;;;;;;;;;;4999977;28;20101;-84
2022/08/02 06:30:45;;;;;;;2.40;1.73;;;;;;;;;;4997199;28;20018;-86
2022/08/02 06:33:11;;;;;;;2.83;1.55;;;;;;;;;;5000527;28;20041;-85
2022/08/02 06:36:06;;;;;;;1.98;1.55;;;;;;;;;;5000840;28;20025;-85
2022/08/02 06:38:42;;;;;;;2.38;1.60;;;;;;;;;;4971699;28;20121;-83
2022/08/02 06:41:12;;;;;;;1.70;1.48;;;;;;;;;;5003214;28;20053;-85
2022/08/02 06:43:47;;;;;;;1.90;1.60;;;;;;;;;;4984618;28;20029;-84
2022/08/02 06:46:13;;;;;;;2.47;1.55;;;;;;;;;;5002995;28;20120;-85
2022/08/02 06:48:38;;;;;;;3.20;1.55;;;;;;;;;;4986871;28;20014;-84
2022/08/02 06:51:04;;;;;;;1.80;1.35;;;;;;;;;;5004917;28;20080;-84
2022/08/02 06:53:30;;;;;;;3.38;1.42;;;;;;;;;;4998413;28;20033;-83
2022/08/02 06:55:56;;;;;;;2.08;1.35;;;;;;;;;;4998947;28;20050;-84
2022/08/02 06:58:22;;;;;;;3.28;1.50;;;;;;;;;;4980894;28;20038;-83
2022/08/02 07:00:47;;;;;;;2.00;1.42;;;;;;;;;;5005639;28;20029;-85
2022/08/02 07:03:13;;;;;;;1.85;1.30;;;;;;;;;;4994717;28;20038;-84
2022/08/02 07:05:40;;;;;;;1.85;1.23;;;;;;;;;;5000336;28;20022;-85
2022/08/02 07:08:06;;;;;;;1.35;1.20;;;;;;;;;;5000561;28;20029;-85
2022/08/02 07:10:31;;;;;;;1.55;1.30;;;;;;;;;;4984975;28;20494;-83
2022/08/02 07:12:57;;;;;;;1.38;1.00;;;;;;;;;;5001953;28;20033;-83
2022/08/02 07:15:22;;;;;;;2.40;1.38;;;;;;;;;;5003300;28;20025;-85
2022/08/02 07:17:47;;;;;;;1.90;1.30;;;;;;;;;;5000328;28;20065;-83
2022/08/02 07:20:13;;;;;;;2.95;1.20;;;;;;;;;;5000516;28;21032;-85
2022/08/02 07:22:41;;;;;;;3.80;1.40;;;;;;;;;;5004796;28;20492;-85
2022/08/02 07:25:07;;;;;;;2.75;1.42;;;;;;;;;;4999617;28;20109;-84
2022/08/02 07:27:33;;;;;;;1.17;1.05;;;;;;;;;;4998416;28;20076;-82
2022/08/02 07:29:59;;;;;;;3.58;1.40;;;;;;;;;;4997837;28;20058;-85
2022/08/02 07:32:27;;;;;;;2.92;1.50;;;;;;;;;;4996778;28;20030;-84
2022/08/02 07:34:53;;;;;;;2.22;1.60;;;;;;;;;;4997477;28;20038;-83
2022/08/02 07:37:21;;;;;;;3.95;1.52;;;;;;;;;;4992868;28;20026;-84
2022/08/02 07:39:47;;;;;;;2.15;1.23;;;;;;;;;;4997814;28;20387;-84
2022/08/02 07:42:12;;;;;;;2.20;1.58;;;;;;;;;;4996125;28;20053;-82
2022/08/02 07:44:38;;;;;;;2.20;1.30;;;;;;;;;;4992336;28;20038;-82
2022/08/02 07:47:03;;;;;;;1.60;1.10;;;;;;;;;;4986393;28;20032;-84
2022/08/02 07:49:29;;;;;;;2.85;1.20;;;;;;;;;;4999779;28;20409;-85
2022/08/02 07:51:55;;;;;;;1.50;1.10;;;;;;;;;;4986433;28;20141;-86
2022/08/02 07:54:21;;;;;;;3.03;1.02;;;;;;;;;;5001004;28;20080;-84
2022/08/02 07:56:46;;;;;;;2.03;1.00;;;;;;;;;;4978928;28;20119;-86
2022/08/02 07:59:13;;;;;;;1.08;0.98;;;;;;;;;;4996831;28;20550;-87
2022/08/02 08:01:38;;;;;;;2.58;1.02;;;;;;;;;;4995266;28;20536;-84
2022/08/02 08:04:04;;;;;;;1.40;1.10;;;;;;;;;;4999355;28;20030;-85
2022/08/02 08:06:30;;;;;;;1.88;1.40;;;;;;;;;;4996780;28;20037;-84
2022/08/02 08:08:56;;;;;;;1.50;1.25;;;;;;;;;;5002430;28;20125;-84
2022/08/02 08:11:21;;;;;;;1.10;0.90;;;;;;;;;;4995733;28;20026;-86
2022/08/02 08:13:47;;;;;;;1.42;1.13;;;;;;;;;;4993518;28;20034;-85
2022/08/02 08:16:12;;;;;;;1.33;1.10;;;;;;;;;;4992510;28;20749;-86
2022/08/02 08:18:38;;;;;;;1.60;1.20;;;;;;;;;;4994468;28;20505;-85
2022/08/02 08:21:03;;;;;;;1.85;0.95;;;;;;;;;;4997484;28;20113;-84
2022/08/02 08:23:29;;;;;;;1.55;1.10;;;;;;;;;;4994779;28;20856;-86
2022/08/02 08:25:54;;;;;;;1.17;0.90;;;;;;;;;;4995332;28;20089;-85
2022/08/02 08:28:20;;;;;;;2.70;1.20;;;;;;;;;;4996803;28;20025;-86
2022/08/02 08:30:46;;;;;;;1.17;1.00;;;;;;;;;;5001417;28;20032;-85
2022/08/02 08:33:12;;;;;;;2.17;1.02;;;;;;;;;;5000997;28;20038;-85
2022/08/02 08:35:38;;;;;;;2.92;1.30;;;;;;;;;;5005907;28;20034;-86
2022/08/02 08:38:03;;;;;;;1.23;1.00;;;;;;;;;;4998684;28;20458;-85
2022/08/02 08:40:29;;;;;;;2.20;1.48;;;;;;;;;;5000206;28;20056;-85
2022/08/02 08:42:54;;;;;;;2.20;1.20;;;;;;;;;;4998558;28;20040;-86
2022/08/02 08:45:20;;;;;;;2.10;1.40;;;;;;;;;;4997253;28;20371;-86
2022/08/02 08:47:51;;;;;;;2.53;1.15;;;;;;;;;;5004098;28;20033;-83
2022/08/02 08:50:24;;;;;;;1.90;1.10;;;;;;;;;;4996395;28;20020;-84
2022/08/02 08:53:06;;;;;;;4.47;1.30;;;;;;;;;;5001364;28;20037;-83
2022/08/02 08:55:33;;;;;;;1.63;1.23;;;;;;;;;;5000889;28;20046;-85
2022/08/02 08:58:01;;;;;;;1.42;1.10;;;;;;;;;;4998237;28;20113;-85
2022/08/02 09:00:29;;;;;;;2.30;1.20;;;;;;;;;;5001233;28;20030;-87
2022/08/02 09:02:55;;;;;;;1.40;1.15;;;;;;;;;;4996315;28;20148;-84
2022/08/02 09:05:20;;;;;;;6.45;1.45;;;;;;;;;;4999236;28;20113;-85
2022/08/02 09:07:50;;;;;;;1.45;1.10;;;;;;;;;;5000511;28;20026;-85
2022/08/02 09:10:32;;;;;;;1.95;1.40;;;;;;;;;;5003833;28;20096;-85
2022/08/02 09:13:20;;;;;;;2.35;1.48;;;;;;;;;;5005804;28;20118;-84
2022/08/02 09:16:06;;;;;;;1.80;1.20;;;;;;;;;;5000964;28;20081;-86
2022/08/02 09:18:36;;;;;;;2.25;1.30;;;;;;;;;;4984231;28;20125;-89
2022/08/02 09:21:03;;;;;;;3.15;1.40;;;;;;;;;;5004250;28;20393;-85
2022/08/02 09:23:37;;;;;;;1.45;1.20;;;;;;;;;;5002977;28;20050;-84
2022/08/02 09:26:07;;;;;;;2.47;1.30;;;;;;;;;;4981299;28;20076;-86
2022/08/02 09:28:36;;;;;;;3.17;1.40;;;;;;;;;;5004387;28;20105;-85
2022/08/02 09:31:08;;;;;;;2.85;1.20;;;;;;;;;;5004072;28;20529;-85
2022/08/02 09:33:35;;;;;;;1.40;1.20;;;;;;;;;;5002177;28;20090;-86
2022/08/02 09:36:11;;;;;;;2.72;1.38;;;;;;;;;;5002820;28;20057;-86
2022/08/02 09:38:38;;;;;;;2.13;1.40;;;;;;;;;;5001152;28;20393;-87
2022/08/02 09:41:05;;;;;;;1.70;1.13;;;;;;;;;;4984829;28;20050;-84
2022/08/02 09:43:39;;;;;;;1.30;1.00;;;;;;;;;;5003492;28;20042;-85
2022/08/02 09:46:13;;;;;;;1.60;1.20;;;;;;;;;;4981037;28;20038;-85
2022/08/02 09:48:53;;;;;;;1.80;1.02;;;;;;;;;;5000766;28;20044;-87
2022/08/02 09:51:47;;;;;;;1.10;1.00;;;;;;;;;;5005518;28;20026;-88
2022/08/02 09:54:21;;;;;;;1.75;1.20;;;;;;;;;;4999908;28;20026;-87
2022/08/02 09:56:50;;;;;;;1.50;1.20;;;;;;;;;;5005811;28;20026;-87
2022/08/02 09:59:17;;;;;;;1.58;1.15;;;;;;;;;;5006261;28;20037;-86
2022/08/02 10:01:44;;;;;;;2.13;1.48;;;;;;;;;;4983269;28;20061;-86
2022/08/02 10:04:12;;;;;;;1.42;0.90;;;;;;;;;;5001393;28;20026;-86
2022/08/02 10:06:39;;;;;;;1.05;0.95;;;;;;;;;;5004114;28;20489;-84
2022/08/02 10:09:09;;;;;;;1.95;1.20;;;;;;;;;;5004414;28;20475;-85
2022/08/02 10:11:34;;;;;;;;;;;;;;;;;;4999328;28;20084;-85
2022/08/02 10:14:03;;;;;;;1.17;0.90;;;;;;;;;;4981905;28;19996;-84
2022/08/02 10:16:31;;;;;;;1.05;0.90;;;;;;;;;;4996698;28;20029;-85
2022/08/02 10:18:59;;;;;;;4.85;1.30;;;;;;;;;;4980653;28;20148;-85
2022/08/02 10:21:43;;;;;;;2.00;1.00;;;;;;;;;;4985119;28;20041;-86
2022/08/02 10:24:25;;;;;;;2.10;1.35;;;;;;;;;;4997969;28;20033;-87
2022/08/02 10:26:51;;;;;;;1.05;0.93;;;;;;;;;;4985285;28;20469;-85
2022/08/02 10:29:28;;;;;;;1.73;1.20;;;;;;;;;;5002034;28;20022;-85
2022/08/02 10:32:03;;;;;;;2.25;0.93;;;;;;;;;;4999880;28;20030;-86
2022/08/02 10:34:36;;;;;;;1.27;0.90;;;;;;;;;;4982376;28;20018;-87
2022/08/02 10:37:03;;;;;;;1.10;0.95;;;;;;;;;;4999585;28;20025;-86
2022/08/02 10:39:43;;;;;;;1.67;1.42;;;;;;;;;;5000245;28;20031;-86
2022/08/02 10:42:09;;;;;;;1.90;1.13;;;;;;;;;;4986193;28;20548;-84
2022/08/02 10:44:36;;;;;;;1.63;1.05;;;;;;;;;;4999170;28;20414;-85
2022/08/02 10:47:31;;;;;;;1.33;1.23;;;;;;;;;;5001638;28;20037;-86
2022/08/02 10:49:58;;;;;;;1.95;1.35;;;;;;;;;;4993327;28;20033;-87
2022/08/02 10:52:30;;;;;;;1.35;0.85;;;;;;;;;;5002658;28;20489;-83
2022/08/02 10:54:58;;;;;;;0.98;0.88;;;;;;;;;;5002088;28;20032;-83
2022/08/02 10:57:31;;;;;;;1.27;1.05;;;;;;;;;;5001802;28;20058;-83
2022/08/02 11:00:01;;;;;;;1.38;1.05;;;;;;;;;;4986286;28;20038;-86
2022/08/02 11:02:37;;;;;;;;;;;;;;;;;;4995421;28;20026;-86
2022/08/02 11:05:06;;;;;;;1.27;0.93;;;;;;;;;;4980415;28;19914;-81
2022/08/02 11:07:47;;;;;;;1.30;0.95;;;;;;;;;;5000859;28;20046;-82
2022/08/02 11:10:24;;;;;;;1.20;0.93;;;;;;;;;;4997757;28;20054;-83
2022/08/02 11:13:12;;;;;;;1.38;0.95;;;;;;;;;;4994524;28;20463;-84
2022/08/02 11:16:03;;;;;;;3.90;1.10;;;;;;;;;;4998650;28;20501;-82
2022/08/02 11:18:50;;;;;;;3.00;0.98;;;;;;;;;;4989424;28;20044;-84
2022/08/02 11:21:24;;;;;;;1.52;1.08;;;;;;;;;;4995490;28;20054;-85
2022/08/02 11:23:51;;;;;;;1.45;1.08;;;;;;;;;;4997706;28;20037;-85
2022/08/02 11:26:31;;;;;;;1.10;1.00;;;;;;;;;;4993855;28;20040;-87
2022/08/02 11:28:58;;;;;;;3.28;1.02;;;;;;;;;;4993382;28;20513;-86
2022/08/02 11:31:24;;;;;;;1.92;1.20;;;;;;;;;;5001948;28;20050;-83
2022/08/02 11:33:50;;;;;;;1.98;1.20;;;;;;;;;;4999523;28;20038;-85
2022/08/02 11:36:17;;;;;;;2.15;1.13;;;;;;;;;;4999715;28;20029;-86
2022/08/02 11:38:42;;;;;;;3.05;1.00;;;;;;;;;;4997494;28;20109;-84
2022/08/02 11:41:08;;;;;;;1.20;1.00;;;;;;;;;;4999388;28;20539;-84
2022/08/02 11:43:35;;;;;;;1.92;1.02;;;;;;;;;;4993099;28;20466;-85
2022/08/02 11:46:04;;;;;;;1.63;1.15;;;;;;;;;;4991495;28;20049;-84
2022/08/02 11:48:37;;;;;;;1.55;1.20;;;;;;;;;;4998076;28;20528;-83
2022/08/02 11:51:05;;;;;;;1.20;1.10;;;;;;;;;;4990920;28;20371;-83
2022/08/02 11:53:43;;;;;;;1.90;0.85;;;;;;;;;;5001165;28;20100;-82
2022/08/02 11:56:09;;;;;;;2.28;1.00;;;;;;;;;;4996505;28;20390;-84
2022/08/02 11:58:35;;;;;;;3.53;0.93;;;;;;;;;;5000710;28;20168;-87
2022/08/02 12:01:02;;;;;;;2.05;0.80;;;;;;;;;;5003795;28;20391;-83
2022/08/02 12:03:33;;;;;;;1.52;0.90;;;;;;;;;;5001356;28;20382;-84
2022/08/02 12:05:58;;;;;;;2.65;0.70;;;;;;;;;;5001782;28;20037;-83
2022/08/02 12:08:25;;;;;;;2.65;1.00;;;;;;;;;;4995189;28;20034;-86
2022/08/02 12:10:50;;;;;;;1.10;0.88;;;;;;;;;;4998016;28;20533;-88
2022/08/02 12:13:16;;;;;;;1.25;1.00;;;;;;;;;;5004646;28;20053;-87
2022/08/02 12:15:44;;;;;;;0.80;0.80;;;;;;;;;;5001825;28;20036;-84
2022/08/02 12:21:03;;;;;;;1.65;0.90;;;;;;;;;;5006711;28;20025;-84
2022/08/02 12:23:29;;;;;;;0.70;0.70;;;;;;;;;;4998854;28;20030;-84
2022/08/02 12:26:05;;;;;;;1.13;0.80;;;;;;;;;;4999526;28;20041;-86
2022/08/02 12:28:34;;;;;;;1.00;0.70;;;;;;;;;;5002150;28;20026;-85
2022/08/02 12:31:00;;;;;;;0.85;0.70;;;;;;;;;;5005558;28;20045;-84
2022/08/02 12:33:44;;;;;;;2.38;1.00;;;;;;;;;;4998977;28;20104;-81
2022/08/02 12:36:17;;;;;;;1.45;0.90;;;;;;;;;;4999119;28;20127;-85
2022/08/02 12:38:53;;;;;;;0.60;0.60;;;;;;;;;;5000485;28;20080;-84
2022/08/02 12:41:18;;;;;;;0.68;0.60;;;;;;;;;;5004501;28;20073;-85
2022/08/02 12:43:44;;;;;;;1.40;0.80;;;;;;;;;;4997529;28;20074;-84
2022/08/02 12:46:17;;;;;;;2.20;0.95;;;;;;;;;;4998145;28;20041;-81
2022/08/02 12:48:43;;;;;;;0.93;0.70;;;;;;;;;;4998442;28;20026;-84
2022/08/02 12:51:32;;;;;;;1.20;0.80;;;;;;;;;;4997305;28;20145;-83
2022/08/02 12:54:31;;;;;;;0.90;0.65;;;;;;;;;;5001786;28;20382;-84
2022/08/02 12:56:57;;;;;;;0.98;0.70;;;;;;;;;;4962741;28;20042;-85
2022/08/02 12:59:35;;;;;;;0.85;0.80;;;;;;;;;;4997588;28;20050;-85
2022/08/02 13:02:05;;;;;;;0.82;0.70;;;;;;;;;;4987619;28;20037;-84
2022/08/02 13:04:30;;;;;;;0.60;0.60;;;;;;;;;;4984673;28;20535;-85
2022/08/02 13:06:56;;;;;;;0.75;0.70;;;;;;;;;;5007715;28;20057;-83
2022/08/02 13:09:21;;;;;;;0.80;0.80;;;;;;;;;;5000770;28;20023;-84
2022/08/02 13:11:47;;;;;;;0.70;0.70;;;;;;;;;;4994112;28;20022;-84
2022/08/02 13:14:13;;;;;;;0.50;0.50;;;;;;;;;;4996482;28;20042;-82
2022/08/02 13:16:40;;;;;;;1.02;0.77;;;;;;;;;;4980358;28;20039;-86
2022/08/02 13:19:06;;;;;;;0.93;0.70;;;;;;;;;;4998118;28;20026;-83
2022/08/02 13:21:31;;;;;;;1.92;0.70;;;;;;;;;;5000167;28;20528;-82
2022/08/02 13:23:57;;;;;;;0.80;0.80;;;;;;;;;;4996991;28;20042;-88
2022/08/02 13:26:22;;;;;;;1.17;0.85;;;;;;;;;;5005137;28;20084;-85
2022/08/02 13:28:48;;;;;;;0.90;0.60;;;;;;;;;;5010721;28;20355;-87
2022/08/02 13:31:13;;;;;;;1.17;0.80;;;;;;;;;;5005434;28;20584;-84
2022/08/02 13:33:39;;;;;;;4.55;0.80;;;;;;;;;;5001427;28;20029;-86
2022/08/02 13:36:04;;;;;;;0.75;0.75;;;;;;;;;;4998611;28;20448;-82
2022/08/02 13:38:29;;;;;;;0.70;0.70;;;;;;;;;;5000276;28;20033;-86
2022/08/02 13:41:11;;;;;;;0.63;0.63;;;;;;;;;;4994108;28;20073;-86
2022/08/02 13:43:37;;;;;;;0.70;0.63;;;;;;;;;;5004487;28;20470;-85
2022/08/02 13:46:04;;;;;;;1.85;1.15;;;;;;;;;;4997495;28;20034;-86
2022/08/02 13:48:30;;;;;;;1.40;0.70;;;;;;;;;;4997516;28;20478;-83
2022/08/02 13:50:55;;;;;;;2.40;0.95;;;;;;;;;;4995506;28;20026;-85
2022/08/02 13:53:20;;;;;;;0.60;0.60;;;;;;;;;;5000210;28;20117;-83
2022/08/02 13:55:46;;;;;;;0.90;0.85;;;;;;;;;;5000533;28;20053;-85
2022/08/02 13:58:11;;;;;;;0.80;0.80;;;;;;;;;;4997372;28;20052;-84
2022/08/02 14:00:37;;;;;;;3.80;0.80;;;;;;;;;;4978328;28;20461;-83
2022/08/02 14:03:06;;;;;;;0.75;0.70;;;;;;;;;;4976975;28;20030;-86
2022/08/02 14:05:36;;;;;;;1.27;0.70;;;;;;;;;;4989683;28;20030;-82
2022/08/02 14:08:01;;;;;;;1.77;0.70;;;;;;;;;;4996789;28;20165;-83
2022/08/02 14:10:27;;;;;;;3.50;1.00;;;;;;;;;;5000607;28;20069;-84
2022/08/02 14:12:52;;;;;;;1.27;0.80;;;;;;;;;;4995198;28;20034;-86
2022/08/02 14:15:18;;;;;;;1.75;0.80;;;;;;;;;;4995944;28;20037;-84
2022/08/02 14:17:43;;;;;;;1.40;0.98;;;;;;;;;;4993859;28;20045;-85
2022/08/02 14:20:10;;;;;;;1.95;0.95;;;;;;;;;;4996027;28;20034;-87
2022/08/02 14:22:35;;;;;;;1.15;1.00;;;;;;;;;;4998271;28;20156;-85
2022/08/02 14:25:01;;;;;;;0.73;0.63;;;;;;;;;;5003830;28;20117;-87
2022/08/02 14:27:26;;;;;;;1.33;0.90;;;;;;;;;;4996807;28;20030;-83
2022/08/02 14:29:53;;;;;;;0.88;0.77;;;;;;;;;;4997593;28;20109;-83
2022/08/02 14:32:18;;;;;;;0.60;0.60;;;;;;;;;;4994070;28;20490;-81
2022/08/02 14:34:43;;;;;;;1.98;0.93;;;;;;;;;;4999418;28;20042;-82
2022/08/02 14:37:09;;;;;;;0.95;0.77;;;;;;;;;;4995313;28;20088;-84
2022/08/02 14:39:35;;;;;;;0.88;0.70;;;;;;;;;;5000797;28;20022;-84
2022/08/02 14:42:01;;;;;;;1.40;0.82;;;;;;;;;;5000004;28;20053;-85
2022/08/02 14:44:27;;;;;;;1.02;0.82;;;;;;;;;;4999751;28;20030;-86
2022/08/02 14:46:53;;;;;;;1.80;1.00;;;;;;;;;;4995442;28;20528;-83
2022/08/02 14:49:19;;;;;;;1.35;0.70;;;;;;;;;;5000933;28;20057;-86
2022/08/02 14:51:45;;;;;;;1.33;0.60;;;;;;;;;;4994857;28;20026;-84
2022/08/02 14:54:11;;;;;;;0.90;0.80;;;;;;;;;;4992006;28;20080;-82
2022/08/02 14:56:36;;;;;;;0.60;0.60;;;;;;;;;;4996578;28;20026;-82